createdAt,value
2018-06-19T09:47:12.809Z,2.62
2018-06-19T16:08:31.709Z,4.00
2018-06-19T16:11:01.948Z,4.60
2018-06-19T16:13:30.932Z,3.05
2018-06-19T16:16:01.915Z,3.30
2018-06-19T16:18:31.728Z,3.08
2018-06-19T16:21:01.783Z,2.83
2018-06-19T16:23:31.818Z,2.83
2018-06-19T16:26:01.530Z,2.67
2018-06-19T16:28:32.308Z,3.00
2018-06-19T16:31:01.169Z,2.90
2018-06-19T16:33:30.965Z,3.08
2018-06-19T16:35:59.792Z,3.27
2018-06-19T16:38:28.716Z,3.20
2018-06-19T16:40:57.791Z,3.12
2018-06-19T16:43:27.919Z,3.20
2018-06-19T16:45:58.122Z,2.98
2018-06-19T16:48:28.252Z,2.92
2018-06-19T16:50:57.335Z,2.80
2018-06-19T16:53:28.756Z,2.70
2018-06-19T16:55:58.889Z,3.12
2018-06-19T16:58:30.111Z,2.80
2018-06-19T17:00:59.926Z,2.62
2018-06-19T17:03:29.548Z,3.05
2018-06-19T17:06:00.252Z,3.20
2018-06-19T17:08:29.906Z,2.70
2018-06-19T17:11:00.159Z,2.90
2018-06-19T17:13:29.359Z,3.50
2018-06-19T17:15:59.075Z,3.12
2018-06-19T17:18:29.888Z,3.20
2018-06-19T17:20:58.818Z,3.00
2018-06-19T17:23:29.069Z,2.98
2018-06-19T17:25:59.764Z,3.55
2018-06-19T17:28:28.809Z,3.02
2018-06-19T17:30:58.453Z,3.33
2018-06-19T17:33:29.952Z,3.08
2018-06-19T17:35:59.621Z,3.33
2018-06-19T17:38:30.727Z,2.98
2018-06-19T17:41:02.543Z,3.22
2018-06-19T17:43:33.467Z,3.50
2018-06-19T17:46:04.322Z,3.10
2018-06-19T17:48:34.704Z,3.30
2018-06-19T17:51:06.318Z,6.55
2018-06-19T17:53:35.248Z,3.12
2018-06-19T17:56:04.805Z,3.05
2018-06-19T17:58:34.303Z,3.25
2018-06-19T18:01:03.345Z,3.08
2018-06-19T18:03:32.882Z,3.20
2018-06-19T18:06:03.824Z,2.90
2018-06-19T18:08:32.670Z,3.27
2018-06-19T18:11:02.177Z,3.42
2018-06-19T18:13:31.867Z,3.10
2018-06-19T18:16:00.997Z,3.30
2018-06-19T18:18:31.189Z,3.30
2018-06-19T18:21:00.715Z,3.15
2018-06-19T18:23:32.336Z,3.25
2018-06-19T18:26:03.295Z,3.60
2018-06-19T18:28:35.346Z,3.10
2018-06-19T18:31:04.942Z,3.08
2018-06-19T18:33:34.842Z,3.40
2018-06-19T18:36:05.796Z,3.10
2018-06-19T18:38:34.845Z,3.00
2018-06-19T18:41:08.142Z,3.58
2018-06-19T18:43:38.398Z,3.40
2018-06-19T18:46:07.681Z,3.00
2018-06-19T18:48:38.775Z,3.50
2018-06-19T18:51:08.363Z,3.20
2018-06-19T18:53:39.875Z,3.40
2018-06-19T18:56:08.971Z,3.50
2018-06-19T18:58:38.668Z,3.58
2018-06-19T19:01:09.307Z,3.35
2018-06-19T19:03:40.847Z,3.15
2018-06-19T19:06:11.436Z,3.67
2018-06-19T19:08:42.129Z,3.75
2018-06-19T19:11:11.890Z,3.70
2018-06-19T19:13:42.906Z,3.40
2018-06-19T19:16:18.960Z,3.65
2018-06-19T19:18:53.286Z,3.22
2018-06-19T19:21:24.109Z,3.60
2018-06-19T19:23:53.619Z,3.70
2018-06-19T19:26:29.359Z,3.95
2018-06-19T19:29:04.209Z,3.60
2018-06-19T19:31:33.777Z,3.45
2018-06-19T19:34:03.403Z,3.27
2018-06-19T19:36:38.143Z,3.92
2018-06-19T19:39:14.498Z,3.90
2018-06-19T19:41:45.394Z,3.67
2018-06-19T19:44:16.762Z,3.90
2018-06-19T19:46:51.323Z,4.00
2018-06-19T19:49:22.379Z,4.90
2018-06-19T19:51:51.992Z,4.10
2018-06-19T19:54:21.815Z,4.10
2018-06-19T19:56:55.991Z,4.40
2018-06-19T19:59:25.116Z,4.65
2018-06-19T20:01:55.960Z,4.42
2018-06-19T20:04:25.531Z,3.95
2018-06-19T20:06:55.768Z,4.20
2018-06-19T20:09:25.907Z,4.55
2018-06-19T20:11:56.111Z,4.53
2018-06-19T20:14:25.558Z,4.20
2018-06-19T20:16:56.568Z,3.92
2018-06-19T20:19:27.417Z,4.50
2018-06-19T20:21:57.779Z,4.20
2018-06-19T20:24:27.853Z,4.65
2018-06-19T20:26:57.784Z,4.33
2018-06-19T20:29:26.701Z,4.50
2018-06-19T20:31:57.292Z,4.30
2018-06-19T20:34:27.812Z,4.17
2018-06-19T20:36:57.231Z,4.53
2018-06-19T20:39:27.526Z,4.65
2018-06-19T20:41:58.188Z,4.60
2018-06-19T20:44:27.915Z,4.40
2018-06-19T20:46:57.035Z,4.28
2018-06-19T20:49:27.515Z,4.45
2018-06-19T20:51:57.631Z,4.95
2018-06-19T20:54:27.959Z,4.12
2018-06-19T20:56:58.410Z,4.12
2018-06-19T20:59:27.415Z,4.20
2018-06-19T21:01:58.135Z,4.47
2018-06-19T21:04:27.779Z,4.65
2018-06-19T21:06:58.275Z,4.37
2018-06-19T21:09:27.815Z,4.40
2018-06-19T21:11:56.812Z,4.37
2018-06-19T21:14:28.177Z,4.37
2018-06-19T21:16:58.146Z,5.00
2018-06-19T21:19:28.792Z,4.50
2018-06-19T21:22:00.563Z,5.47
2018-06-19T21:24:31.067Z,4.55
2018-06-19T21:27:00.617Z,4.62
2018-06-19T21:29:30.163Z,4.90
2018-06-19T21:31:59.060Z,4.22
2018-06-19T21:34:28.604Z,4.45
2018-06-19T21:36:59.426Z,4.87
2018-06-19T21:39:30.155Z,4.65
2018-06-19T21:41:59.571Z,4.55
2018-06-19T21:44:29.791Z,4.75
2018-06-19T21:47:00.275Z,4.80
2018-06-19T21:49:29.891Z,4.60
2018-06-19T21:52:00.790Z,4.90
2018-06-19T21:54:29.795Z,5.03
2018-06-19T21:56:59.891Z,5.00
2018-06-19T21:59:29.347Z,6.08
2018-06-19T22:01:59.067Z,5.28
2018-06-19T22:04:30.431Z,5.03
2018-06-19T22:07:01.285Z,4.60
2018-06-19T22:09:32.424Z,4.95
2018-06-19T22:12:04.608Z,4.70
2018-06-19T22:14:35.034Z,5.08
2018-06-19T22:17:06.436Z,4.60
2018-06-19T22:19:37.714Z,4.47
2018-06-19T22:22:09.548Z,4.55
2018-06-19T22:24:39.763Z,4.72
2018-06-19T22:27:10.722Z,5.03
2018-06-19T22:29:40.258Z,5.03
2018-06-19T22:32:09.066Z,4.62
2018-06-19T22:34:39.390Z,4.87
2018-06-19T22:37:09.770Z,5.22
2018-06-19T22:39:40.809Z,4.75
2018-06-19T22:42:10.983Z,4.75
2018-06-19T22:44:42.034Z,4.90
2018-06-19T22:47:11.996Z,4.97
2018-06-19T22:49:41.442Z,4.60
2018-06-19T22:52:11.102Z,4.58
2018-06-19T22:54:42.077Z,4.85
2018-06-19T22:57:11.072Z,4.80
2018-06-19T22:59:41.195Z,4.97
2018-06-19T23:02:10.554Z,4.67
2018-06-19T23:04:43.078Z,5.00
2018-06-19T23:07:13.814Z,5.60
2018-06-19T23:09:43.823Z,5.53
2018-06-19T23:12:12.821Z,5.15
2018-06-19T23:14:42.326Z,5.15
2018-06-19T23:17:11.425Z,5.20
2018-06-19T23:19:42.321Z,5.83
2018-06-19T23:22:11.243Z,5.55
2018-06-19T23:24:41.468Z,5.22
2018-06-19T23:27:12.173Z,5.75
2018-06-19T23:29:41.192Z,5.12
2018-06-19T23:32:12.699Z,5.35
2018-06-19T23:34:43.572Z,5.37
2018-06-19T23:37:14.768Z,5.33
2018-06-19T23:39:45.486Z,5.80
2018-06-19T23:42:15.900Z,6.33
2018-06-19T23:44:45.989Z,5.20
2018-06-19T23:47:15.532Z,5.95
2018-06-19T23:49:45.949Z,5.53
2018-06-19T23:52:15.936Z,5.03
2018-06-19T23:54:45.542Z,5.70
2018-06-19T23:57:17.464Z,5.70
2018-06-19T23:59:47.735Z,5.95
